Time;durP1;ratioP1;P1;durP2;ratioP2;P2;SDS_P1;SDS_P2;PMS_P1;PMS_P2;Temp;Humidity;BMP_temperature;BMP_pressure;BME280_temperature;BME280_humidity;BME280_pressure;Samples;Min_cycle;Max_cycle;Signal;HPM_P1;HPM_P2
2021/10/09 00:00:57;;;;;;;4.28;3.33;;;15.10;71.10;;;;;;5057477;28;20029;-72
2021/10/09 00:03:23;;;;;;;5.05;3.50;;;15.10;71.10;;;;;;5070706;28;20047;-73
2021/10/09 00:05:48;;;;;;;3.65;3.15;;;15.10;71.00;;;;;;5071240;28;20374;-73
2021/10/09 00:08:16;;;;;;;3.58;3.25;;;15.00;71.20;;;;;;5070352;28;20382;-73
2021/10/09 00:10:43;;;;;;;6.28;3.25;;;15.10;70.80;;;;;;5071247;28;20020;-74
2021/10/09 00:13:09;;;;;;;3.90;3.22;;;15.00;70.80;;;;;;5056887;28;20116;-73
2021/10/09 00:15:35;;;;;;;6.03;3.40;;;15.00;71.20;;;;;;5040860;28;20074;-73
2021/10/09 00:18:01;;;;;;;5.50;3.58;;;15.00;71.00;;;;;;5057427;28;20028;-72
2021/10/09 00:20:31;;;;;;;5.40;3.35;;;15.00;71.50;;;;;;5074420;28;20028;-73
2021/10/09 00:22:56;;;;;;;5.55;3.38;;;15.00;71.10;;;;;;5074169;28;20098;-74
2021/10/09 00:25:23;;;;;;;5.85;3.53;;;14.90;71.00;;;;;;5074313;28;20477;-74
2021/10/09 00:27:49;;;;;;;5.07;3.33;;;15.00;71.20;;;;;;5074353;28;20024;-73
2021/10/09 00:30:14;;;;;;;4.10;3.25;;;14.90;71.20;;;;;;5079903;28;20078;-73
2021/10/09 00:32:40;;;;;;;3.88;3.25;;;14.90;71.30;;;;;;5076049;28;20481;-73
2021/10/09 00:35:06;;;;;;;4.10;3.10;;;14.90;71.50;;;;;;5076246;28;20028;-74
2021/10/09 00:37:32;;;;;;;4.82;3.35;;;14.90;71.50;;;;;;5078256;28;20087;-74
2021/10/09 00:39:58;;;;;;;5.25;3.40;;;14.90;71.50;;;;;;5073965;28;20474;-72
2021/10/09 00:42:24;;;;;;;4.30;3.10;;;14.80;71.40;;;;;;5057961;28;20021;-74
2021/10/09 00:44:50;;;;;;;4.82;3.63;;;14.80;71.50;;;;;;5074241;28;20470;-73
2021/10/09 00:47:16;;;;;;;5.45;3.13;;;14.70;71.80;;;;;;5073627;28;20100;-73
2021/10/09 00:49:42;;;;;;;4.88;2.97;;;14.70;71.70;;;;;;5073493;28;20413;-74
2021/10/09 00:52:10;;;;;;;5.97;3.50;;;14.70;72.00;;;;;;5073870;28;20020;-73
2021/10/09 00:54:42;;;;;;;5.22;3.42;;;14.60;72.00;;;;;;5073857;28;20048;-73
2021/10/09 00:57:08;;;;;;;4.70;3.40;;;14.60;71.80;;;;;;5070184;28;20029;-73
2021/10/09 00:59:36;;;;;;;4.88;3.47;;;14.60;72.10;;;;;;5073661;28;20730;-73
2021/10/09 01:02:03;;;;;;;5.80;3.47;;;14.60;72.10;;;;;;5073588;28;20552;-73
2021/10/09 01:04:30;;;;;;;5.65;4.20;;;14.60;71.80;;;;;;5073309;28;20443;-72
2021/10/09 01:06:57;;;;;;;5.97;3.72;;;14.60;72.00;;;;;;5073744;28;20040;-73
2021/10/09 01:09:22;;;;;;;6.57;3.70;;;14.70;72.20;;;;;;5073525;28;20044;-73
2021/10/09 01:11:48;;;;;;;7.00;3.72;;;14.70;71.80;;;;;;5074130;28;20025;-73
2021/10/09 01:14:14;;;;;;;5.57;3.70;;;14.70;71.80;;;;;;5073424;28;20044;-72
2021/10/09 01:16:39;;;;;;;6.13;3.60;;;14.60;72.00;;;;;;5069541;28;20370;-73
2021/10/09 01:19:07;;;;;;;5.30;3.47;;;14.50;72.40;;;;;;5060696;28;20036;-74
2021/10/09 01:21:47;;;;;;;5.00;3.33;;;14.50;72.30;;;;;;5073397;28;20032;-72
2021/10/09 01:24:13;;;;;;;4.63;3.28;;;14.50;71.50;;;;;;5070264;28;20396;-72
2021/10/09 01:26:39;;;;;;;5.20;3.30;;;14.40;72.50;;;;;;5061457;28;20032;-73
2021/10/09 01:29:07;;;;;;;5.80;3.60;;;14.40;72.50;;;;;;5068634;28;20029;-72
2021/10/09 01:31:33;;;;;;;4.60;3.50;;;14.40;72.60;;;;;;5072749;28;20535;-74
2021/10/09 01:33:59;;;;;;;5.30;3.50;;;14.30;72.40;;;;;;5072804;28;20021;-74
2021/10/09 01:36:33;;;;;;;7.00;4.10;;;14.30;72.50;;;;;;5072643;28;20021;-75
2021/10/09 01:38:59;;;;;;;4.80;3.38;;;14.30;72.60;;;;;;5073803;28;20055;-73
2021/10/09 01:41:25;;;;;;;4.82;3.95;;;14.20;72.60;;;;;;5044970;28;20024;-72
2021/10/09 01:43:52;;;;;;;5.03;3.50;;;14.20;72.90;;;;;;5060900;28;20401;-73
2021/10/09 01:46:17;;;;;;;5.57;3.47;;;14.20;72.90;;;;;;5061933;28;20024;-73
2021/10/09 01:48:43;;;;;;;4.85;3.65;;;14.20;73.00;;;;;;5072347;28;20040;-73
2021/10/09 01:51:10;;;;;;;6.05;4.10;;;14.10;72.80;;;;;;5073360;28;20031;-73
2021/10/09 01:53:37;;;;;;;5.40;4.00;;;14.10;73.00;;;;;;5072797;28;20408;-74
2021/10/09 01:56:04;;;;;;;5.82;3.85;;;14.10;73.10;;;;;;5047645;28;20021;-74
2021/10/09 01:58:30;;;;;;;5.63;3.75;;;14.10;73.10;;;;;;5063758;28;20370;-73
2021/10/09 02:00:56;;;;;;;5.15;3.30;;;14.00;73.10;;;;;;5072537;28;20039;-73
2021/10/09 02:03:22;;;;;;;4.97;3.20;;;14.00;73.40;;;;;;5071583;28;20079;-73
2021/10/09 02:05:48;;;;;;;5.00;3.53;;;14.00;73.30;;;;;;5073240;28;20032;-74
2021/10/09 02:08:14;;;;;;;7.25;3.80;;;13.90;73.10;;;;;;5072446;28;20032;-73
2021/10/09 02:11:01;;;;;;;5.80;3.67;;;13.90;73.40;;;;;;5072110;28;20039;-74
2021/10/09 02:16:20;;;;;;;5.20;3.95;;;13.90;74.10;;;;;;5072322;28;20032;-73
2021/10/09 02:26:35;;;;;;;7.97;3.95;;;13.80;73.40;;;;;;5072130;28;20552;-74
2021/10/09 02:29:01;;;;;;;5.78;4.18;;;13.80;73.80;;;;;;5046864;28;20128;-73
2021/10/09 02:31:29;;;;;;;5.07;3.70;;;13.80;73.90;;;;;;5062300;28;20451;-74
2021/10/09 02:33:54;;;;;;;6.32;4.13;;;13.80;73.90;;;;;;5053592;28;20074;-73
2021/10/09 02:36:20;;;;;;;5.47;3.58;;;13.90;74.00;;;;;;5055955;28;20025;-74
2021/10/09 02:38:46;;;;;;;4.75;3.45;;;13.80;73.70;;;;;;5072117;28;20492;-72
2021/10/09 02:41:12;;;;;;;4.80;3.75;;;13.70;73.80;;;;;;5071788;28;20052;-73
2021/10/09 02:43:38;;;;;;;5.75;4.07;;;13.70;73.80;;;;;;5071731;28;20078;-73
2021/10/09 02:46:04;;;;;;;5.53;3.72;;;13.70;74.30;;;;;;5071403;28;20041;-73
2021/10/09 02:48:30;;;;;;;6.85;4.05;;;13.70;74.30;;;;;;5071679;28;20404;-73
2021/10/09 02:50:56;;;;;;;5.40;4.03;;;13.70;74.30;;;;;;5072200;28;20024;-73
2021/10/09 02:53:21;;;;;;;5.68;4.35;;;13.60;74.50;;;;;;5053870;28;20032;-72
2021/10/09 02:55:47;;;;;;;6.68;4.15;;;13.60;74.50;;;;;;5071420;28;20028;-73
2021/10/09 02:58:13;;;;;;;5.18;4.07;;;13.60;74.40;;;;;;5071333;28;20028;-73
2021/10/09 03:00:38;;;;;;;5.72;4.20;;;13.60;74.50;;;;;;5071255;28;20029;-73
2021/10/09 03:03:04;;;;;;;5.60;4.28;;;13.60;75.20;;;;;;5054266;28;20138;-74
2021/10/09 03:05:30;;;;;;;6.18;4.60;;;13.60;74.60;;;;;;5071505;28;20433;-72
2021/10/09 03:07:55;;;;;;;5.63;4.35;;;13.60;74.50;;;;;;5065160;28;20021;-73
2021/10/09 03:10:21;;;;;;;6.18;4.38;;;13.60;74.30;;;;;;5061407;28;20036;-73
2021/10/09 03:12:47;;;;;;;6.90;4.28;;;13.60;74.60;;;;;;5071676;28;20017;-72
2021/10/09 03:15:13;;;;;;;7.00;4.78;;;13.50;74.60;;;;;;5055204;28;20456;-73
2021/10/09 03:17:39;;;;;;;5.85;4.10;;;13.60;75.80;;;;;;5071617;28;20044;-73
2021/10/09 03:20:07;;;;;;;6.80;4.05;;;13.60;74.50;;;;;;5071082;28;20436;-74
2021/10/09 03:22:33;;;;;;;6.50;4.30;;;13.60;74.40;;;;;;5050506;28;20036;-73
2021/10/09 03:24:59;;;;;;;5.72;4.22;;;13.60;74.80;;;;;;5070203;28;20121;-73
2021/10/09 03:27:25;;;;;;;8.65;4.50;;;13.50;74.60;;;;;;5070947;28;20051;-72
2021/10/09 03:29:50;;;;;;;7.97;4.63;;;13.50;74.80;;;;;;5053403;28;20038;-73
2021/10/09 03:32:16;;;;;;;7.20;4.60;;;13.50;75.10;;;;;;5071031;28;20025;-74
2021/10/09 03:34:42;;;;;;;5.80;4.45;;;13.60;75.80;;;;;;5071259;28;20032;-73
2021/10/09 03:37:07;;;;;;;6.03;4.43;;;13.50;74.90;;;;;;5070834;28;20024;-72
2021/10/09 03:39:36;;;;;;;7.55;4.55;;;13.50;74.70;;;;;;5036994;28;20033;-74
2021/10/09 03:42:09;;;;;;;7.85;4.75;;;13.50;75.20;;;;;;5056455;28;20067;-74
2021/10/09 03:44:42;;;;;;;7.40;4.70;;;13.50;75.10;;;;;;5070643;28;20113;-74
2021/10/09 03:49:47;;;;;;;6.45;4.53;;;13.40;74.90;;;;;;5067411;28;20044;-74
2021/10/09 03:54:57;;;;;;;6.25;4.43;;;13.30;75.50;;;;;;5061778;28;20086;-74
2021/10/09 03:57:23;;;;;;;7.50;4.53;;;13.40;75.50;;;;;;5075120;28;20485;-74
2021/10/09 03:59:48;;;;;;;7.80;4.75;;;13.30;75.00;;;;;;5075147;28;20031;-73
2021/10/09 04:02:14;;;;;;;6.03;4.20;;;13.30;75.40;;;;;;5073729;28;20040;-74
2021/10/09 04:04:39;;;;;;;6.63;4.90;;;13.30;75.20;;;;;;5074427;28;20816;-72
2021/10/09 04:07:05;;;;;;;6.78;4.60;;;13.30;75.50;;;;;;5074040;28;20032;-73
2021/10/09 04:09:31;;;;;;;6.45;4.53;;;13.30;75.30;;;;;;5074474;28;20028;-73
2021/10/09 04:11:56;;;;;;;6.70;4.50;;;13.30;76.20;;;;;;5074367;28;20059;-74
2021/10/09 04:14:22;;;;;;;6.82;4.75;;;13.30;75.40;;;;;;5072805;28;20055;-73
2021/10/09 04:16:47;;;;;;;7.45;4.57;;;13.30;75.40;;;;;;5073920;28;20024;-73
2021/10/09 04:19:13;;;;;;;7.05;4.60;;;13.20;75.50;;;;;;5073919;28;20029;-73
2021/10/09 04:21:38;;;;;;;5.75;4.35;;;13.20;75.70;;;;;;5074161;28;20099;-73
2021/10/09 04:24:04;;;;;;;7.82;5.10;;;13.20;75.80;;;;;;5074431;28;20434;-74
2021/10/09 04:26:30;;;;;;;6.72;4.57;;;13.30;76.20;;;;;;5047957;28;20021;-75
2021/10/09 04:28:55;;;;;;;6.57;4.28;;;13.20;75.70;;;;;;5068317;28;20497;-74
2021/10/09 04:31:21;;;;;;;7.53;4.70;;;13.20;75.90;;;;;;5072399;28;20028;-74
2021/10/09 04:33:47;;;;;;;6.68;4.63;;;13.20;76.10;;;;;;5058940;28;20033;-75
2021/10/09 04:36:12;;;;;;;5.68;4.32;;;13.10;76.10;;;;;;5073833;28;20040;-74
2021/10/09 04:38:38;;;;;;;5.93;4.22;;;13.10;75.90;;;;;;5073492;28;20056;-73
2021/10/09 04:41:04;;;;;;;7.32;4.68;;;13.10;76.10;;;;;;5072417;28;20040;-74
2021/10/09 04:43:29;;;;;;;8.02;4.97;;;13.10;76.30;;;;;;5072154;28;20485;-74
2021/10/09 04:45:55;;;;;;;5.88;4.82;;;13.10;76.20;;;;;;5071970;28;20627;-74
2021/10/09 04:48:21;;;;;;;6.60;4.40;;;13.10;76.30;;;;;;5072304;28;20111;-73
2021/10/09 04:50:46;;;;;;;7.75;4.57;;;13.00;76.20;;;;;;5072617;28;20044;-74
2021/10/09 04:53:12;;;;;;;7.32;4.80;;;13.10;76.30;;;;;;5072170;28;20051;-74
2021/10/09 04:55:38;;;;;;;8.10;5.50;;;13.10;76.50;;;;;;5072518;28;20017;-73
2021/10/09 04:58:03;;;;;;;9.07;4.97;;;13.00;76.50;;;;;;5053242;28;20147;-72
2021/10/09 05:00:29;;;;;;;7.88;5.20;;;13.10;76.40;;;;;;5037838;28;20087;-74
2021/10/09 05:02:55;;;;;;;7.22;4.78;;;13.10;76.80;;;;;;5059164;28;20032;-74
2021/10/09 05:05:20;;;;;;;8.77;5.38;;;13.10;76.60;;;;;;5070201;28;20032;-74
2021/10/09 05:07:46;;;;;;;9.75;5.47;;;13.10;76.50;;;;;;5071819;28;20113;-73
2021/10/09 05:10:12;;;;;;;6.78;4.75;;;13.10;76.50;;;;;;5072171;28;20135;-73
2021/10/09 05:12:37;;;;;;;8.52;5.47;;;13.10;77.00;;;;;;5055638;28;20060;-72
2021/10/09 05:15:04;;;;;;;8.77;5.63;;;13.10;76.60;;;;;;5072719;28;20021;-73
2021/10/09 05:17:30;;;;;;;10.68;5.70;;;13.10;76.40;;;;;;5042835;28;20033;-73
2021/10/09 05:19:56;;;;;;;7.32;5.18;;;13.10;76.60;;;;;;5069307;28;20031;-73
2021/10/09 05:22:21;;;;;;;8.00;5.65;;;13.00;76.50;;;;;;5081702;28;20805;-74
2021/10/09 05:24:50;;;;;;;8.98;5.13;;;13.00;76.80;;;;;;5074174;28;20020;-74
2021/10/09 05:27:16;;;;;;;7.20;5.15;;;13.00;76.60;;;;;;5071957;28;20039;-73
2021/10/09 05:29:41;;;;;;;8.23;5.72;;;12.90;76.50;;;;;;5071034;28;20029;-74
2021/10/09 05:32:08;;;;;;;8.13;5.88;;;13.00;77.90;;;;;;5071481;28;20028;-74
2021/10/09 05:34:34;;;;;;;8.55;5.45;;;13.00;77.10;;;;;;5071807;28;20025;-75
2021/10/09 05:37:00;;;;;;;8.10;5.72;;;13.00;76.90;;;;;;5071538;28;20039;-71
2021/10/09 05:39:26;;;;;;;9.50;5.80;;;13.10;77.20;;;;;;5031445;28;1159820;-73
2021/10/09 05:41:52;;;;;;;9.45;5.97;;;13.10;76.70;;;;;;5072617;28;20485;-73
2021/10/09 05:44:17;;;;;;;7.18;5.53;;;13.20;77.20;;;;;;5072519;28;20028;-73
2021/10/09 05:46:43;;;;;;;7.22;5.13;;;13.10;76.70;;;;;;5072134;28;20099;-73
2021/10/09 05:49:09;;;;;;;8.70;5.10;;;13.10;76.50;;;;;;5072082;28;20127;-73
2021/10/09 05:51:42;;;;;;;8.07;5.63;;;13.10;76.50;;;;;;5038376;28;20020;-74
2021/10/09 07:00:53;;;;;;;8.52;5.57;;;14.20;76.00;;;;;;5068706;28;20511;-70
2021/10/09 07:03:21;;;;;;;10.32;5.97;;;14.40;75.70;;;;;;5068700;28;20021;-68
2021/10/09 07:05:47;;;;;;;8.68;5.95;;;14.40;75.30;;;;;;5052202;28;20028;-68
2021/10/09 07:08:13;;;;;;;12.23;6.53;;;14.50;75.20;;;;;;5069506;28;20066;-76
2021/10/09 07:10:41;;;;;;;7.55;5.72;;;14.70;75.10;;;;;;5051289;28;20518;-69
2021/10/09 07:13:08;;;;;;;9.05;5.75;;;14.80;74.90;;;;;;5070382;28;20166;-73
2021/10/09 07:15:35;;;;;;;8.93;6.03;;;14.90;74.60;;;;;;5051277;28;20044;-70
2021/10/09 07:18:01;;;;;;;11.10;6.25;;;15.10;74.00;;;;;;5072340;28;20027;-69
2021/10/09 07:20:27;;;;;;;9.13;6.05;;;15.20;73.40;;;;;;5071542;28;20029;-68
2021/10/09 07:22:53;;;;;;;9.82;5.82;;;15.30;73.50;;;;;;5069537;28;20028;-66
2021/10/09 07:25:19;;;;;;;10.38;6.35;;;15.30;73.40;;;;;;5070882;28;20556;-76
2021/10/09 07:27:46;;;;;;;9.77;5.82;;;15.50;73.20;;;;;;5080251;28;20099;-84
2021/10/09 07:30:12;;;;;;;11.35;6.60;;;15.60;72.70;;;;;;5071822;28;20036;-75
2021/10/09 07:32:38;;;;;;;9.27;5.72;;;15.70;72.70;;;;;;5075039;28;20575;-72
2021/10/09 07:35:04;;;;;;;9.82;6.15;;;15.80;72.00;;;;;;5072617;28;20131;-71
2021/10/09 07:37:30;;;;;;;10.48;6.78;;;15.80;72.00;;;;;;5069192;28;20027;-72
2021/10/09 07:39:55;;;;;;;8.85;6.13;;;16.10;72.20;;;;;;5073321;28;20045;-75
2021/10/09 07:42:21;;;;;;;8.65;6.25;;;16.20;72.60;;;;;;5070606;28;20035;-77
2021/10/09 07:44:49;;;;;;;9.88;6.47;;;16.30;71.30;;;;;;5076818;28;20460;-70
2021/10/09 07:47:15;;;;;;;9.65;5.88;;;16.50;71.20;;;;;;5069254;28;20405;-72
2021/10/09 07:49:41;;;;;;;10.98;6.40;;;16.70;71.30;;;;;;5067898;28;20040;-70
2021/10/09 07:52:07;;;;;;;9.40;6.45;;;16.90;70.30;;;;;;5069723;28;20044;-72
2021/10/09 07:54:33;;;;;;;9.27;6.20;;;17.10;69.50;;;;;;5069891;28;20110;-71
2021/10/09 07:56:59;;;;;;;8.80;6.13;;;17.20;68.40;;;;;;5070645;28;20367;-71
2021/10/09 07:59:24;;;;;;;9.52;6.25;;;17.40;68.60;;;;;;5070117;28;20036;-71
2021/10/09 08:01:51;;;;;;;8.20;6.00;;;17.60;68.30;;;;;;5070384;28;20057;-72
2021/10/09 08:04:17;;;;;;;8.10;5.63;;;17.70;68.30;;;;;;5070140;28;20070;-72
2021/10/09 08:06:43;;;;;;;8.07;5.65;;;18.00;67.50;;;;;;5069620;28;20024;-73
2021/10/09 08:09:09;;;;;;;7.57;5.88;;;18.20;66.60;;;;;;5067605;28;20436;-73
2021/10/09 08:11:35;;;;;;;7.40;5.28;;;18.40;66.40;;;;;;5048680;28;20032;-73
2021/10/09 08:14:00;;;;;;;7.95;5.43;;;18.70;66.60;;;;;;5070262;28;20036;-72
2021/10/09 08:16:26;;;;;;;7.20;5.63;;;18.90;65.70;;;;;;5070131;28;20024;-73
2021/10/09 08:18:52;;;;;;;6.78;5.10;;;19.10;64.80;;;;;;5070552;28;20028;-73
2021/10/09 08:21:23;;;;;;;6.85;5.70;;;19.20;63.90;;;;;;5070206;28;20025;-73
2021/10/09 08:23:56;;;;;;;6.50;4.97;;;19.30;63.30;;;;;;5070811;28;20072;-72
2021/10/09 08:40:11;;;;;;;7.20;5.28;;;20.50;63.20;;;;;;5042110;28;20037;-73
2021/10/09 08:42:37;;;;;;;6.72;5.63;;;20.70;62.60;;;;;;5052118;28;20040;-72
2021/10/09 08:45:04;;;;;;;6.75;5.78;;;20.70;59.80;;;;;;5052447;28;20032;-69
2021/10/09 08:47:33;;;;;;;6.60;5.53;;;20.80;60.60;;;;;;5051892;28;20147;-73
2021/10/09 08:49:59;;;;;;;9.88;5.47;;;20.90;60.40;;;;;;5050461;28;20076;-71
2021/10/09 08:52:25;;;;;;;5.95;5.35;;;21.10;61.20;;;;;;5050898;28;20037;-71
2021/10/09 08:54:51;;;;;;;5.95;5.18;;;21.30;60.40;;;;;;5051710;28;20524;-71
2021/10/09 08:57:22;;;;;;;7.15;5.00;;;21.30;59.40;;;;;;5051853;28;20572;-72
2021/10/09 08:59:52;;;;;;;5.95;5.28;;;21.40;59.70;;;;;;5051669;28;20039;-71
2021/10/09 09:02:27;;;;;;;6.53;5.20;;;21.70;59.10;;;;;;5051474;28;20036;-71
2021/10/09 09:27:17;;;;;;;4.90;4.50;;;22.70;55.80;;;;;;5058322;28;20036;-72
2021/10/09 09:32:46;;;;;;;6.00;4.63;;;23.00;55.20;;;;;;4999957;28;20047;-72
2021/10/09 09:35:22;;;;;;;5.35;4.85;;;23.30;57.30;;;;;;4999473;28;20046;-73
2021/10/09 09:40:23;;;;;;;5.00;4.15;;;23.70;55.30;;;;;;5019364;28;20502;-71
2021/10/09 09:42:51;;;;;;;4.82;4.32;;;23.80;54.10;;;;;;4996529;28;20133;-72
2021/10/09 09:45:21;;;;;;;4.35;3.95;;;24.00;55.50;;;;;;4994858;28;20033;-72
2021/10/09 09:47:47;;;;;;;4.07;3.72;;;24.20;54.40;;;;;;4998263;28;20133;-72
2021/10/09 09:50:14;;;;;;;4.45;4.05;;;24.20;52.50;;;;;;4999711;28;20468;-71
2021/10/09 09:52:44;;;;;;;4.25;3.83;;;24.20;52.10;;;;;;4999872;28;20022;-72
2021/10/09 09:55:12;;;;;;;4.13;3.67;;;24.30;52.30;;;;;;4999471;28;20022;-71
2021/10/09 09:57:38;;;;;;;3.97;3.35;;;24.40;53.40;;;;;;4995373;28;20467;-72
2021/10/09 10:00:15;;;;;;;5.10;3.50;;;24.60;54.00;;;;;;4996571;28;20500;-71
2021/10/09 10:03:04;;;;;;;3.65;3.33;;;24.80;54.30;;;;;;4998467;28;20447;-72
2021/10/09 10:05:30;;;;;;;3.95;3.28;;;24.90;52.60;;;;;;4998924;28;20074;-73
2021/10/09 10:07:57;;;;;;;3.40;2.58;;;24.90;52.20;;;;;;4999455;28;20034;-71
2021/10/09 10:10:22;;;;;;;3.20;2.90;;;25.20;52.70;;;;;;5052167;28;20046;-73
2021/10/09 10:12:54;;;;;;;4.15;2.80;;;25.30;51.10;;;;;;5072179;28;20024;-73
2021/10/09 10:15:27;;;;;;;3.88;3.13;;;25.40;51.10;;;;;;5072038;28;20024;-72
2021/10/09 10:17:53;;;;;;;3.95;2.85;;;25.50;51.40;;;;;;5057464;28;20025;-72
2021/10/09 10:20:21;;;;;;;4.22;3.47;;;25.60;50.20;;;;;;5069668;28;20513;-72
2021/10/09 10:22:49;;;;;;;3.28;2.70;;;25.70;50.30;;;;;;5068160;28;20037;-72
2021/10/09 10:25:27;;;;;;;3.13;2.83;;;25.80;51.10;;;;;;5054262;28;20081;-71
2021/10/09 10:28:17;;;;;;;5.45;2.92;;;25.80;51.90;;;;;;5072030;28;20025;-72
2021/10/09 10:30:49;;;;;;;4.82;3.20;;;25.90;51.80;;;;;;5056339;28;20032;-71
2021/10/09 10:33:18;;;;;;;2.85;2.53;;;25.90;49.90;;;;;;5071932;28;20082;-72
2021/10/09 10:35:45;;;;;;;5.28;3.00;;;26.00;47.80;;;;;;5071324;28;20029;-71
2021/10/09 10:38:17;;;;;;;3.67;2.63;;;26.00;48.50;;;;;;5071490;28;20044;-71
2021/10/09 10:40:50;;;;;;;3.28;2.78;;;26.10;48.60;;;;;;5072587;28;20073;-71
2021/10/09 10:54:18;;;;;;;2.97;2.40;;;26.60;47.00;;;;;;5067925;28;20067;-72
2021/10/09 10:56:56;;;;;;;2.80;2.20;;;26.40;47.00;;;;;;5070915;28;20032;-72
2021/10/09 10:59:31;;;;;;;3.03;2.33;;;26.20;47.60;;;;;;5071181;28;20501;-70
2021/10/09 11:02:10;;;;;;;2.40;1.90;;;26.00;47.70;;;;;;5065653;28;20482;-72
2021/10/09 11:04:41;;;;;;;2.60;2.13;;;25.90;47.90;;;;;;5063322;28;20497;-71
2021/10/09 11:07:08;;;;;;;2.45;2.05;;;25.90;47.50;;;;;;5071588;28;20048;-71
2021/10/09 11:09:36;;;;;;;3.03;2.20;;;26.00;47.10;;;;;;5071598;28;20040;-72
2021/10/09 11:12:02;;;;;;;3.08;2.28;;;26.00;47.00;;;;;;5072179;28;20029;-71
2021/10/09 11:14:27;;;;;;;2.70;2.10;;;25.80;46.20;;;;;;5072762;28;20107;-73
2021/10/09 11:17:03;;;;;;;3.25;1.98;;;25.60;46.30;;;;;;5077306;28;20481;-71
2021/10/09 11:19:46;;;;;;;2.15;1.60;;;25.60;48.00;;;;;;5070921;28;20021;-71
2021/10/09 11:22:19;;;;;;;2.20;1.80;;;25.70;48.60;;;;;;5071461;28;20032;-70
2021/10/09 11:24:46;;;;;;;2.00;1.70;;;25.80;48.00;;;;;;5068210;28;20483;-72
2021/10/09 11:27:14;;;;;;;2.65;1.95;;;25.90;47.10;;;;;;5071591;28;20095;-71
2021/10/09 11:29:41;;;;;;;2.58;1.80;;;26.00;46.80;;;;;;5058791;28;20041;-71
2021/10/09 11:32:10;;;;;;;3.88;2.30;;;26.10;46.70;;;;;;5066965;28;20025;-71
2021/10/09 11:34:52;;;;;;;2.65;2.03;;;26.20;46.40;;;;;;5067936;28;20397;-71
2021/10/09 11:37:19;;;;;;;3.95;2.25;;;26.40;47.90;;;;;;5059918;28;20561;-71
2021/10/09 11:39:50;;;;;;;3.28;2.05;;;26.50;45.50;;;;;;5070874;28;20048;-70
2021/10/09 11:42:20;;;;;;;2.10;1.83;;;26.50;46.10;;;;;;5067405;28;20028;-72
2021/10/09 11:45:30;;;;;;;3.08;2.35;;;26.60;46.00;;;;;;5070815;28;20044;-72
2021/10/09 11:54:10;;;;;;;2.95;2.10;;;27.30;45.90;;;;;;5059557;28;20047;-71
2021/10/09 11:56:43;;;;;;;2.63;2.30;;;27.60;46.60;;;;;;5070601;28;20036;-70
2021/10/09 11:59:10;;;;;;;3.50;2.60;;;27.80;44.00;;;;;;5070704;28;20037;-71
2021/10/09 12:01:42;;;;;;;2.92;2.20;;;27.90;43.80;;;;;;5070918;28;20025;-72
2021/10/09 12:04:12;;;;;;;2.95;2.50;;;28.40;44.30;;;;;;5070588;28;20040;-71
2021/10/09 12:06:43;;;;;;;3.13;2.20;;;28.60;43.10;;;;;;5053356;28;20503;-72
2021/10/09 12:09:09;;;;;;;3.20;2.60;;;28.90;43.00;;;;;;5071083;28;20047;-70
2021/10/09 12:11:35;;;;;;;4.05;2.50;;;29.20;41.40;;;;;;5074434;28;20039;-70
2021/10/09 12:14:02;;;;;;;2.55;1.98;;;29.60;40.70;;;;;;5074260;28;20025;-70
2021/10/09 12:16:38;;;;;;;2.03;1.67;;;30.00;40.50;;;;;;5074531;28;20094;-71
2021/10/09 12:19:09;;;;;;;2.30;1.30;;;30.60;40.60;;;;;;5074381;28;20378;-71
2021/10/09 12:21:40;;;;;;;2.42;1.65;;;31.50;37.40;;;;;;5058435;28;20060;-72
2021/10/09 12:24:20;;;;;;;2.70;1.40;;;32.90;35.60;;;;;;5075200;28;20400;-72
2021/10/09 12:27:12;;;;;;;2.25;1.42;;;34.70;36.80;;;;;;5074062;28;20505;-71
2021/10/09 12:30:00;;;;;;;1.73;1.30;;;36.60;35.50;;;;;;5074203;28;20047;-72
2021/10/09 12:32:26;;;;;;;1.80;1.40;;;37.90;31.50;;;;;;5074128;28;20505;-72
2021/10/09 12:35:11;;;;;;;1.70;1.13;;;39.20;27.30;;;;;;5074272;28;20036;-72
2021/10/09 12:37:39;;;;;;;1.60;1.25;;;39.50;27.20;;;;;;5074059;28;20032;-72
2021/10/09 12:40:06;;;;;;;1.55;1.40;;;40.30;24.20;;;;;;5073930;28;20047;-73
2021/10/09 12:42:32;;;;;;;2.35;1.45;;;40.90;23.60;;;;;;5057662;28;20492;-71
2021/10/09 12:44:57;;;;;;;1.27;1.17;;;41.70;22.30;;;;;;5074804;28;20019;-74
2021/10/09 12:47:23;;;;;;;1.70;1.25;;;41.90;22.50;;;;;;5074025;28;20166;-72
2021/10/09 12:49:49;;;;;;;2.28;1.45;;;42.30;22.60;;;;;;5074136;28;20037;-71
2021/10/09 12:52:16;;;;;;;1.92;1.35;;;43.20;21.10;;;;;;5073786;28;20388;-73
2021/10/09 12:54:42;;;;;;;2.25;1.35;;;43.60;22.40;;;;;;5058091;28;20036;-71
2021/10/09 12:57:09;;;;;;;2.90;1.50;;;43.50;19.90;;;;;;5070428;28;20393;-71
2021/10/09 12:59:35;;;;;;;1.75;1.35;;;42.70;20.30;;;;;;5073525;28;20082;-70
2021/10/09 13:02:02;;;;;;;1.33;1.02;;;42.60;20.20;;;;;;5073609;28;20032;-71
2021/10/09 13:04:28;;;;;;;1.90;1.65;;;42.40;20.00;;;;;;5073679;28;20056;-72
2021/10/09 13:06:54;;;;;;;1.70;1.48;;;42.00;20.60;;;;;;5073815;28;20071;-71
2021/10/09 13:09:20;;;;;;;1.40;1.20;;;41.50;20.60;;;;;;5073226;28;20054;-71
2021/10/09 13:12:09;;;;;;;2.42;1.40;;;41.00;20.50;;;;;;5074375;28;20405;-71
2021/10/09 13:14:32;;;;;;;3.83;2.55;;;40.70;20.70;;;;;;5072348;28;20078;-71
2021/10/09 13:16:58;;;;;;;2.70;2.50;;;40.70;21.90;;;;;;5073611;28;20040;-72
2021/10/09 13:19:24;;;;;;;2.95;2.65;;;40.10;20.80;;;;;;5073046;28;20016;-72
2021/10/09 13:21:50;;;;;;;2.33;1.40;;;37.50;21.00;;;;;;5055038;28;20147;-72
2021/10/09 13:24:16;;;;;;;1.40;1.10;;;34.60;23.50;;;;;;5069330;28;20029;-71
2021/10/09 13:26:41;;;;;;;1.80;1.35;;;32.60;25.90;;;;;;5073698;28;20505;-72
2021/10/09 13:29:07;;;;;;;1.60;1.33;;;31.00;27.90;;;;;;5072706;28;20119;-72
2021/10/09 13:31:33;;;;;;;1.58;1.20;;;29.80;29.60;;;;;;5070690;28;20078;-73
2021/10/09 13:33:59;;;;;;;1.48;1.00;;;28.80;31.60;;;;;;5068155;28;20048;-73
2021/10/09 13:36:25;;;;;;;2.80;1.33;;;28.00;34.10;;;;;;5073041;28;20020;-72
2021/10/09 13:38:52;;;;;;;1.67;1.23;;;27.40;33.80;;;;;;5057309;28;20537;-72
2021/10/09 13:41:18;;;;;;;1.58;1.30;;;26.90;35.10;;;;;;5070032;28;20032;-72
2021/10/09 13:43:44;;;;;;;1.85;1.20;;;26.50;36.10;;;;;;5072732;28;20037;-72
2021/10/09 13:46:13;;;;;;;1.88;1.30;;;26.10;36.70;;;;;;5072818;28;20028;-71
2021/10/09 13:48:40;;;;;;;1.65;1.17;;;25.90;37.90;;;;;;5073580;28;20382;-72
2021/10/09 13:51:12;;;;;;;1.73;1.23;;;25.80;38.30;;;;;;5073370;28;20040;-72
2021/10/09 13:53:46;;;;;;;1.40;1.08;;;25.60;38.30;;;;;;5072614;28;20023;-72
2021/10/09 13:56:12;;;;;;;2.15;1.30;;;25.30;38.30;;;;;;5072692;28;20032;-72
2021/10/09 13:58:38;;;;;;;1.60;1.05;;;25.10;39.40;;;;;;5068876;28;20025;-73
2021/10/09 14:01:04;;;;;;;1.92;1.15;;;24.90;39.90;;;;;;5059905;28;20025;-72
2021/10/09 14:03:32;;;;;;;2.50;1.10;;;24.80;40.10;;;;;;5056002;28;20038;-71
2021/10/09 14:05:58;;;;;;;1.55;0.95;;;24.60;39.90;;;;;;5073043;28;20431;-72
2021/10/09 14:08:25;;;;;;;1.80;1.30;;;24.40;40.60;;;;;;5072053;28;20092;-73
2021/10/09 14:10:51;;;;;;;2.63;1.25;;;24.30;41.20;;;;;;5067618;28;20029;-71
2021/10/09 14:13:17;;;;;;;1.77;1.40;;;24.20;41.70;;;;;;5061149;28;20063;-72
2021/10/09 14:15:43;;;;;;;3.08;1.30;;;24.10;42.00;;;;;;5072601;28;20024;-71
2021/10/09 14:18:10;;;;;;;2.35;1.20;;;24.10;42.00;;;;;;5057417;28;20036;-74
2021/10/09 14:20:36;;;;;;;3.08;1.20;;;24.00;42.00;;;;;;5071610;28;20067;-73
2021/10/09 14:23:03;;;;;;;1.58;1.10;;;23.90;42.10;;;;;;5071401;28;20082;-73
2021/10/09 14:25:32;;;;;;;2.75;1.15;;;23.90;43.10;;;;;;5072148;28;20051;-72
2021/10/09 14:28:01;;;;;;;1.70;1.17;;;23.90;43.00;;;;;;5071889;28;20428;-73
2021/10/09 14:30:27;;;;;;;2.10;1.50;;;23.90;42.90;;;;;;5071105;28;20043;-72
2021/10/09 14:32:53;;;;;;;1.30;1.13;;;23.80;43.30;;;;;;5072043;28;20645;-71
2021/10/09 14:35:19;;;;;;;1.50;1.20;;;23.80;42.90;;;;;;5062662;28;20116;-71
2021/10/09 14:37:44;;;;;;;3.58;1.60;;;23.70;43.30;;;;;;5064415;28;20021;-71
2021/10/09 14:40:10;;;;;;;2.38;1.40;;;23.50;43.00;;;;;;5071619;28;20045;-71
2021/10/09 14:42:36;;;;;;;2.15;1.42;;;23.50;43.20;;;;;;5071835;28;20040;-72
2021/10/09 14:45:03;;;;;;;1.73;1.20;;;23.30;43.10;;;;;;5072911;28;20033;-72
2021/10/09 14:48:03;;;;;;;2.40;1.23;;;23.20;43.80;;;;;;5071935;28;20035;-70
2021/10/09 14:51:27;;;;;;;2.15;1.20;;;23.20;44.00;;;;;;5069037;28;20104;-70
2021/10/09 14:53:32;;;;;;;1.38;1.00;;;23.10;43.60;;;;;;5054155;28;20033;-71
2021/10/09 15:18:07;;;;;;;2.70;1.08;;;22.60;44.90;;;;;;5056759;28;20381;-71
2021/10/09 15:20:27;;;;;;;1.50;1.10;;;22.50;45.40;;;;;;5068396;28;20044;-71
2021/10/09 15:22:53;;;;;;;1.85;1.13;;;22.40;45.30;;;;;;5048942;28;20025;-72
2021/10/09 15:25:19;;;;;;;1.83;1.00;;;22.40;45.40;;;;;;5071231;28;20031;-70
2021/10/09 15:27:44;;;;;;;2.35;1.40;;;22.50;45.80;;;;;;5071512;28;20024;-70
2021/10/09 15:30:10;;;;;;;1.90;1.40;;;22.40;45.70;;;;;;5072138;28;20040;-71
2021/10/09 15:32:38;;;;;;;1.30;1.00;;;22.40;45.60;;;;;;5071352;28;20025;-71